createdAt,value
2018-05-10T00:00:32.771Z,94093.09
2018-05-10T00:03:01.787Z,94102.83
2018-05-10T00:05:30.027Z,94100.62
2018-05-10T00:07:58.384Z,94097.84
2018-05-10T00:10:26.533Z,94099.33
2018-05-10T00:12:55.132Z,94096.22
2018-05-10T00:15:24.036Z,94099.58
2018-05-10T00:17:52.280Z,94098.91
2018-05-10T00:20:21.295Z,94092.16
2018-05-10T00:22:49.539Z,94102.07
2018-05-10T00:25:18.555Z,94099.09
2018-05-10T00:27:47.570Z,94094.14
2018-05-10T00:30:15.811Z,94099.38
2018-05-10T00:32:44.063Z,94102.00
2018-05-10T00:35:12.314Z,94096.11
2018-05-10T00:37:40.568Z,94092.95
2018-05-10T00:40:09.583Z,94092.41
2018-05-10T00:42:37.839Z,94095.59
2018-05-10T00:45:07.471Z,94100.99
2018-05-10T00:47:35.725Z,94107.47
2018-05-10T00:50:04.734Z,94101.08
2018-05-10T00:52:33.756Z,94098.93
2018-05-10T00:55:01.994Z,94099.34
2018-05-10T00:57:30.247Z,94096.64
2018-05-10T00:59:58.493Z,94102.11
2018-05-10T01:02:26.740Z,94098.70
2018-05-10T01:04:55.812Z,94100.76
2018-05-10T01:07:26.010Z,94097.30
2018-05-10T01:09:54.244Z,94098.06
2018-05-10T01:12:23.259Z,94102.33
2018-05-10T01:14:51.501Z,94107.34
2018-05-10T01:17:19.756Z,94104.47
2018-05-10T01:19:47.999Z,94108.87
2018-05-10T01:22:16.255Z,94111.39
2018-05-10T01:24:44.509Z,94114.00
2018-05-10T01:27:12.750Z,94112.65
2018-05-10T01:29:41.009Z,94112.44
2018-05-10T01:32:10.015Z,94110.44
2018-05-10T01:34:39.033Z,94115.45
2018-05-10T01:37:07.285Z,94112.16
2018-05-10T01:39:36.292Z,94112.38
2018-05-10T01:42:05.298Z,94113.23
2018-05-10T01:44:33.559Z,94114.67
2018-05-10T01:47:02.563Z,94109.34
2018-05-10T01:49:31.583Z,94121.38
2018-05-10T01:51:59.831Z,94114.59
2018-05-10T01:54:28.847Z,94114.33
2018-05-10T01:56:57.078Z,94120.04
2018-05-10T01:59:25.340Z,94117.18
2018-05-10T02:01:53.578Z,94120.31
2018-05-10T02:04:22.602Z,94119.24
2018-05-10T02:06:50.839Z,94120.77
2018-05-10T02:09:19.091Z,94113.59
2018-05-10T02:11:47.340Z,94125.20
2018-05-10T02:14:15.603Z,94118.58
2018-05-10T02:16:43.855Z,94124.22
2018-05-10T02:19:12.105Z,94129.31
2018-05-10T02:21:41.586Z,94125.66
2018-05-10T02:24:09.834Z,94130.20
2018-05-10T02:26:38.842Z,94127.13
2018-05-10T02:29:07.869Z,94133.30
2018-05-10T02:31:36.116Z,94134.77
2018-05-10T02:34:05.145Z,94127.60
2018-05-10T02:36:33.375Z,94134.32
2018-05-10T02:39:01.623Z,94131.58
2018-05-10T02:41:29.878Z,94132.63
2018-05-10T02:43:58.128Z,94133.38
2018-05-10T02:46:27.138Z,94136.84
2018-05-10T02:48:56.152Z,94134.65
2018-05-10T02:51:24.403Z,94133.43
2018-05-10T02:53:53.414Z,94135.14
2018-05-10T02:56:22.431Z,94130.75
2018-05-10T02:58:50.687Z,94131.02
2018-05-10T03:01:19.705Z,94127.67
2018-05-10T03:03:47.940Z,94133.47
2018-05-10T03:06:16.238Z,94140.56
2018-05-10T03:08:45.243Z,94140.15
2018-05-10T03:11:14.268Z,94137.54
2018-05-10T03:13:42.512Z,94156.13
2018-05-10T03:16:11.531Z,94147.48
2018-05-10T03:18:39.771Z,94149.98
2018-05-10T03:21:08.033Z,94153.02
2018-05-10T03:23:36.271Z,94159.34
2018-05-10T03:26:04.535Z,94155.52
2018-05-10T03:28:33.545Z,94152.59
2018-05-10T03:31:02.562Z,94154.84
2018-05-10T03:33:30.804Z,94155.77
2018-05-10T03:35:59.827Z,94158.27
2018-05-10T03:38:28.079Z,94157.79
2018-05-10T03:40:56.326Z,94159.15
2018-05-10T03:43:24.565Z,94160.78
2018-05-10T03:45:52.819Z,94157.17
2018-05-10T03:48:21.833Z,94151.84
2018-05-10T03:50:50.884Z,94158.17
2018-05-10T03:53:19.112Z,94155.90
2018-05-10T03:55:47.466Z,94164.47
2018-05-10T03:58:15.710Z,94159.92
2018-05-10T04:00:43.968Z,94171.95
2018-05-10T04:06:49.066Z,94169.08
2018-05-10T04:12:24.347Z,94171.22
2018-05-10T04:14:52.595Z,94174.83
2018-05-10T04:17:21.614Z,94174.36
2018-05-10T04:19:49.863Z,94178.84
2018-05-10T04:22:18.883Z,94176.22
2018-05-10T04:24:47.915Z,94172.23
2018-05-10T04:27:17.405Z,94175.31
2018-05-10T04:29:45.657Z,94167.83
2018-05-10T04:32:14.676Z,94169.38
2018-05-10T04:34:42.919Z,94175.47
2018-05-10T04:37:11.171Z,94171.16
2018-05-10T04:39:39.410Z,94164.65
2018-05-10T04:42:07.698Z,94172.02
2018-05-10T04:44:36.687Z,94168.48
2018-05-10T04:47:04.958Z,94170.29
2018-05-10T04:49:33.936Z,94164.77
2018-05-10T04:52:02.184Z,94165.39
2018-05-10T04:54:30.436Z,94171.98
2018-05-10T04:56:58.699Z,94170.58
2018-05-10T04:59:27.709Z,94176.16
2018-05-10T05:01:55.959Z,94174.47
2018-05-10T05:04:24.976Z,94176.77
2018-05-10T05:06:54.003Z,94180.17
2018-05-10T05:09:23.075Z,94182.62
2018-05-10T05:11:51.397Z,94184.58
2018-05-10T05:14:20.361Z,94176.33
2018-05-10T05:16:48.615Z,94172.18
2018-05-10T05:19:17.671Z,94175.02
2018-05-10T05:21:45.903Z,94169.12
2018-05-10T05:24:14.925Z,94173.95
2018-05-10T05:26:43.188Z,94175.30
2018-05-10T05:29:12.199Z,94173.17
2018-05-10T05:31:40.495Z,94181.52
2018-05-10T05:34:09.484Z,94186.35
2018-05-10T05:36:37.842Z,94186.84
2018-05-10T05:39:05.997Z,94174.80
2018-05-10T05:41:34.795Z,94179.55
2018-05-10T05:44:03.824Z,94176.69
2018-05-10T05:46:32.084Z,94175.12
2018-05-10T05:49:01.124Z,94186.75
2018-05-10T05:51:29.375Z,94185.01
2018-05-10T05:53:58.400Z,94184.63
2018-05-10T05:56:26.642Z,94186.63
2018-05-10T05:58:55.671Z,94192.77
2018-05-10T06:01:23.940Z,94192.73
2018-05-10T06:03:52.206Z,94199.31
2018-05-10T06:06:21.220Z,94189.75
2018-05-10T06:08:49.487Z,94196.14
2018-05-10T06:11:18.506Z,94192.45
2018-05-10T06:13:47.631Z,94194.23
2018-05-10T06:16:15.890Z,94193.05
2018-05-10T06:18:44.147Z,94194.94
2018-05-10T06:21:12.441Z,94195.59
2018-05-10T06:23:40.671Z,94199.84
2018-05-10T06:26:08.929Z,94199.25
2018-05-10T06:28:37.182Z,94202.16
2018-05-10T06:31:05.431Z,94209.81
2018-05-10T06:33:34.459Z,94211.00
2018-05-10T06:36:02.710Z,94214.33
2018-05-10T06:38:31.751Z,94221.09
2018-05-10T06:41:00.003Z,94223.47
2018-05-10T06:43:29.028Z,94225.27
2018-05-10T06:45:57.279Z,94232.62
2018-05-10T06:48:26.323Z,94233.32
2018-05-10T06:50:54.578Z,94238.37
2018-05-10T06:53:22.834Z,94237.10
2018-05-10T06:55:51.093Z,94248.57
2018-05-10T06:58:19.360Z,94247.30
2018-05-10T07:00:47.615Z,94250.36
2018-05-10T07:03:15.892Z,94246.19
2018-05-10T07:05:44.130Z,94244.20
2018-05-10T07:08:13.163Z,94246.28
2018-05-10T07:10:41.412Z,94248.59
2018-05-10T07:13:10.439Z,94248.77
2018-05-10T07:15:38.699Z,94253.08
2018-05-10T07:18:06.975Z,94256.06
2018-05-10T07:20:35.995Z,94264.27
2018-05-10T07:23:04.251Z,94249.44
2018-05-10T07:25:33.274Z,94259.80
2018-05-10T07:28:01.544Z,94264.81
2018-05-10T07:32:58.156Z,94265.87
2018-05-10T07:35:27.845Z,94273.42
2018-05-10T07:37:56.100Z,94269.98
2018-05-10T07:40:24.351Z,94279.64
2018-05-10T07:42:53.379Z,94279.16
2018-05-10T07:45:21.645Z,94279.06
2018-05-10T07:47:50.674Z,94283.87
2018-05-10T07:50:18.927Z,94292.85
2018-05-10T07:52:47.182Z,94287.14
2018-05-10T07:55:15.447Z,94298.59
2018-05-10T07:57:43.705Z,94304.53
2018-05-10T08:00:11.971Z,94297.54
2018-05-10T08:02:40.224Z,94295.52
2018-05-10T08:05:09.258Z,94298.55
2018-05-10T08:07:38.439Z,94304.27
2018-05-10T08:10:06.716Z,94303.23
2018-05-10T08:12:35.733Z,94301.06
2018-05-10T08:15:04.004Z,94304.67
2018-05-10T08:17:32.252Z,94313.64
2018-05-10T08:20:01.275Z,94311.05
2018-05-10T08:22:29.535Z,94316.84
2018-05-10T08:24:58.555Z,94315.59
2018-05-10T08:27:52.433Z,94316.01
2018-05-10T08:30:20.708Z,94316.43
2018-05-10T08:32:48.947Z,94319.52
2018-05-10T08:35:17.220Z,94318.39
2018-05-10T08:37:45.453Z,94323.45
2018-05-10T08:40:13.721Z,94334.48
2018-05-10T08:42:41.965Z,94323.75
2018-05-10T08:45:10.407Z,94327.58
2018-05-10T08:47:38.502Z,94332.52
2018-05-10T08:50:06.755Z,94330.77
2018-05-10T08:52:35.015Z,94341.71
2018-05-10T08:55:03.280Z,94341.25
2018-05-10T08:57:32.286Z,94344.11
2018-05-10T09:00:00.590Z,94343.98
2018-05-10T09:02:29.571Z,94348.13
2018-05-10T09:04:57.831Z,94351.48
2018-05-10T09:07:26.903Z,94356.13
2018-05-10T09:09:55.125Z,94359.59
2018-05-10T09:12:24.147Z,94368.37
2018-05-10T09:14:52.403Z,94368.39
2018-05-10T09:17:20.656Z,94370.44
2018-05-10T09:19:48.920Z,94369.52
2018-05-10T09:22:17.177Z,94367.65
2018-05-10T09:24:45.438Z,94366.93
2018-05-10T09:27:13.688Z,94373.23
2018-05-10T09:29:43.980Z,94373.31
2018-05-10T09:32:12.227Z,94381.19
2018-05-10T09:34:40.494Z,94384.30
2018-05-10T09:37:08.756Z,94382.84
2018-05-10T09:39:37.784Z,94378.96
2018-05-10T09:42:06.069Z,94382.97
2018-05-10T09:44:34.321Z,94389.05
2018-05-10T09:47:03.343Z,94403.49
2018-05-10T09:49:31.590Z,94386.27
2018-05-10T09:52:00.905Z,94393.90
2018-05-10T09:54:29.919Z,94400.98
2018-05-10T09:56:58.208Z,94403.89
2018-05-10T09:59:26.459Z,94407.04
2018-05-10T10:01:55.494Z,94410.72
2018-05-10T10:04:23.750Z,94416.66
2018-05-10T10:06:52.770Z,94407.09
2018-05-10T10:09:21.019Z,94412.72
2018-05-10T10:11:50.047Z,94397.13
2018-05-10T10:14:18.308Z,94410.79
2018-05-10T10:16:46.587Z,94413.26
2018-05-10T10:19:14.840Z,94415.05
2018-05-10T10:21:43.122Z,94402.90
2018-05-10T10:24:11.374Z,94402.98
2018-05-10T10:26:39.630Z,94400.75
2018-05-10T10:29:07.906Z,94404.16
2018-05-10T10:31:36.173Z,94401.25
2018-05-10T10:34:05.441Z,94405.58
2018-05-10T10:36:33.699Z,94398.63
2018-05-10T10:39:01.954Z,94400.20
2018-05-10T10:41:30.211Z,94401.78
2018-05-10T10:43:59.220Z,94416.42
2018-05-10T10:46:27.488Z,94409.48
2018-05-10T10:48:56.513Z,94412.86
2018-05-10T10:51:24.769Z,94411.03
2018-05-10T10:53:53.869Z,94406.86
2018-05-10T10:56:22.043Z,94417.91
2018-05-10T10:58:51.060Z,94418.28
2018-05-10T11:01:19.327Z,94423.84
2018-05-10T11:03:47.579Z,94421.02
2018-05-10T11:06:15.852Z,94419.68
2018-05-10T11:08:44.108Z,94415.70
2018-05-10T11:11:12.371Z,94426.11
2018-05-10T11:13:40.628Z,94425.73
2018-05-10T11:16:09.646Z,94441.76
2018-05-10T11:18:37.905Z,94427.01
2018-05-10T11:21:06.174Z,94430.67
2018-05-10T11:23:35.182Z,94430.33
2018-05-10T11:26:04.094Z,94438.20
2018-05-10T11:28:32.355Z,94434.53
2018-05-10T11:31:01.391Z,94437.83
2018-05-10T11:33:29.640Z,94443.84
2018-05-10T11:35:57.920Z,94448.28
2018-05-10T11:38:26.170Z,94452.07
2018-05-10T11:40:54.427Z,94451.01
2018-05-10T11:43:22.697Z,94452.27
2018-05-10T11:45:50.955Z,94449.05
2018-05-10T11:48:19.225Z,94452.58
2018-05-10T11:50:47.472Z,94455.59
2018-05-10T11:53:15.739Z,94467.70
2018-05-10T11:55:43.983Z,94455.30
2018-05-10T11:58:12.245Z,94455.37
2018-05-10T12:00:40.497Z,94461.00
2018-05-10T12:03:08.990Z,94451.87
2018-05-10T12:05:38.003Z,94450.13
2018-05-10T12:08:06.247Z,94461.98
2018-05-10T12:10:34.506Z,94461.23
2018-05-10T12:13:02.768Z,94467.53
2018-05-10T12:15:31.018Z,94458.39
2018-05-10T12:17:59.283Z,94460.97
2018-05-10T12:20:28.314Z,94463.11
2018-05-10T12:22:57.327Z,94464.17
2018-05-10T12:25:25.586Z,94458.14
2018-05-10T12:27:53.844Z,94460.25
2018-05-10T12:30:22.891Z,94459.66
2018-05-10T12:32:51.135Z,94461.88
2018-05-10T12:35:20.155Z,94460.77
2018-05-10T12:37:48.412Z,94458.98
2018-05-10T12:40:17.439Z,94459.64
2018-05-10T12:42:45.712Z,94462.80
2018-05-10T12:45:13.959Z,94461.96
2018-05-10T12:47:42.987Z,94471.94
2018-05-10T12:50:11.842Z,94475.60
2018-05-10T12:52:40.099Z,94470.85
2018-05-10T12:55:08.359Z,94480.31
2018-05-10T12:57:36.628Z,94483.25
2018-05-10T13:00:04.871Z,94484.66
2018-05-10T13:02:33.925Z,94485.13
2018-05-10T13:05:02.176Z,94493.17
2018-05-10T13:07:30.435Z,94488.14
2018-05-10T13:09:59.457Z,94493.41
2018-05-10T13:12:27.718Z,94499.91
2018-05-10T13:14:56.744Z,94491.83
2018-05-10T13:17:24.991Z,94497.02
2018-05-10T13:19:54.026Z,94494.48
2018-05-10T13:22:22.292Z,94497.23
2018-05-10T13:24:51.327Z,94501.26
2018-05-10T13:27:19.661Z,94502.25
2018-05-10T13:29:47.859Z,94512.03
2018-05-10T13:32:16.871Z,94501.33
2018-05-10T13:34:45.140Z,94504.45
2018-05-10T13:37:13.389Z,94504.66
2018-05-10T13:39:42.415Z,94505.75
2018-05-10T13:42:10.664Z,94507.54
2018-05-10T13:44:39.695Z,94505.50
2018-05-10T13:47:08.015Z,94509.80
2018-05-10T13:49:36.983Z,94497.49
2018-05-10T13:52:05.259Z,94503.33
2018-05-10T13:54:33.512Z,94503.39
2018-05-10T13:57:01.772Z,94506.20
2018-05-10T13:59:30.048Z,94506.07
2018-05-10T14:01:58.303Z,94510.95
2018-05-10T14:04:26.576Z,94517.16
2018-05-10T14:06:54.818Z,94524.02
2018-05-10T14:09:23.089Z,94517.03
2018-05-10T14:11:52.104Z,94542.66
2018-05-10T14:14:20.375Z,94543.92
2018-05-10T14:16:48.627Z,94548.58
2018-05-10T14:19:16.904Z,94544.02
2018-05-10T14:21:45.148Z,94553.79
2018-05-10T14:24:13.415Z,94549.65
2018-05-10T14:26:41.671Z,94562.44
2018-05-10T14:29:10.695Z,94570.76
2018-05-10T14:31:38.952Z,94570.48
2018-05-10T14:34:07.989Z,94569.11
2018-05-10T14:36:36.240Z,94574.94
2018-05-10T14:39:05.412Z,94581.26
2018-05-10T14:41:34.440Z,94583.19
2018-05-10T14:44:02.707Z,94590.23
2018-05-10T14:46:32.959Z,94590.46
2018-05-10T14:49:01.231Z,94596.32
2018-05-10T14:51:29.475Z,94600.20
2018-05-10T14:53:58.570Z,94598.34
2018-05-10T14:56:26.771Z,94605.44
2018-05-10T14:58:55.797Z,94616.40
2018-05-10T15:01:24.071Z,94618.31
2018-05-10T15:03:52.333Z,94625.55
2018-05-10T15:06:20.602Z,94633.48
2018-05-10T15:08:49.627Z,94639.23
2018-05-10T15:11:17.897Z,94629.30
2018-05-10T15:13:46.175Z,94636.50
2018-05-10T15:16:15.261Z,94643.23
2018-05-10T15:18:44.271Z,94643.97
2018-05-10T15:21:12.537Z,94646.77
2018-05-10T15:23:41.627Z,94645.64
2018-05-10T15:26:09.813Z,94647.39
2018-05-10T15:28:40.078Z,94659.40
2018-05-10T15:31:08.331Z,94657.47
2018-05-10T15:33:37.352Z,94658.87
2018-05-10T15:36:05.614Z,94660.01
2018-05-10T15:38:34.631Z,94658.64
2018-05-10T15:41:02.895Z,94660.10
2018-05-10T15:43:31.155Z,94663.39
2018-05-10T15:46:00.179Z,94664.47
2018-05-10T15:48:28.438Z,94664.77
2018-05-10T15:50:57.463Z,94667.72
2018-05-10T15:53:25.728Z,94664.44
2018-05-10T15:55:54.008Z,94664.95
2018-05-10T15:58:22.336Z,94667.56
2018-05-10T16:00:50.535Z,94669.50
2018-05-10T16:03:18.790Z,94672.86
2018-05-10T16:05:47.056Z,94674.98
2018-05-10T16:08:15.294Z,94680.31
2018-05-10T16:10:45.569Z,94686.97
2018-05-10T16:13:13.815Z,94685.28
2018-05-10T16:15:42.082Z,94691.35
2018-05-10T16:18:11.095Z,94688.77
2018-05-10T16:20:39.347Z,94687.06
2018-05-10T16:23:07.632Z,94693.43
2018-05-10T16:25:35.900Z,94699.83
2018-05-10T16:28:04.148Z,94696.77
2018-05-10T16:30:32.419Z,94704.63
2018-05-10T16:33:00.667Z,94704.89
2018-05-10T16:35:29.701Z,94703.42
2018-05-10T16:37:59.407Z,94712.59
2018-05-10T16:40:27.681Z,94714.84
2018-05-10T16:42:55.936Z,94714.94
2018-05-10T16:45:24.971Z,94717.28
2018-05-10T16:47:53.219Z,94716.00
2018-05-10T16:50:22.247Z,94715.28
2018-05-10T16:52:50.691Z,94723.92
2018-05-10T16:55:19.707Z,94723.27
2018-05-10T16:57:47.971Z,94724.78
2018-05-10T17:00:16.993Z,94732.47
2018-05-10T17:02:45.248Z,94741.18
2018-05-10T17:05:14.263Z,94735.63
2018-05-10T17:07:42.530Z,94740.59
2018-05-10T17:10:11.556Z,94744.70
2018-05-10T17:12:40.356Z,94750.87
2018-05-10T17:15:08.611Z,94756.27
2018-05-10T17:17:37.631Z,94765.44
2018-05-10T17:20:05.896Z,94771.30
2018-05-10T17:22:34.910Z,94776.81
2018-05-10T17:25:03.177Z,94787.83
2018-05-10T17:27:31.562Z,94790.70
2018-05-10T17:30:00.833Z,94794.30
2018-05-10T17:32:29.105Z,94805.70
2018-05-10T17:34:57.360Z,94807.47
2018-05-10T17:37:25.619Z,94812.22
2018-05-10T17:39:53.870Z,94820.72
2018-05-10T17:42:22.898Z,94825.42
2018-05-10T17:44:51.147Z,94824.25
2018-05-10T17:47:20.174Z,94828.34
2018-05-10T17:49:48.433Z,94823.25
2018-05-10T17:52:16.711Z,94837.23
2018-05-10T17:54:45.721Z,94852.62
2018-05-10T17:57:14.808Z,94859.88
2018-05-10T17:59:43.823Z,94857.93
2018-05-10T18:02:12.091Z,94862.14
2018-05-10T18:04:40.338Z,94867.34
2018-05-10T18:07:08.634Z,94882.18
2018-05-10T18:09:36.862Z,94882.75
2018-05-10T18:12:05.128Z,94882.09
2018-05-10T18:14:33.394Z,94894.77
2018-05-10T18:17:01.654Z,94895.09
2018-05-10T18:19:29.921Z,94900.16
2018-05-10T18:21:58.173Z,94901.50
2018-05-10T18:24:26.419Z,94914.81
2018-05-10T18:26:54.714Z,94923.73
2018-05-10T18:29:23.710Z,94918.70
2018-05-10T18:31:51.975Z,94923.20
2018-05-10T18:34:20.226Z,94933.18
2018-05-10T18:36:48.493Z,94935.92
2018-05-10T18:39:16.750Z,94943.88
2018-05-10T18:41:45.007Z,94946.80
2018-05-10T18:44:13.267Z,94960.61
2018-05-10T18:46:42.290Z,94969.95
2018-05-10T18:49:10.876Z,94974.09
2018-05-10T18:51:39.120Z,94977.31
2018-05-10T18:54:08.133Z,94984.81
2018-05-10T18:56:36.403Z,94997.03
2018-05-10T18:59:05.427Z,95006.11
2018-05-10T19:01:33.695Z,95016.18
2018-05-10T19:04:01.975Z,95021.12
2018-05-10T19:06:30.229Z,95030.63
2018-05-10T19:08:58.498Z,95029.17
2018-05-10T19:11:26.747Z,95033.81
2018-05-10T19:13:55.018Z,95043.39
2018-05-10T19:16:23.275Z,95046.03
2018-05-10T19:18:52.294Z,95056.88
2018-05-10T19:21:20.563Z,95066.95
2018-05-10T19:23:48.825Z,95071.56
2018-05-10T19:26:17.842Z,95075.89
2018-05-10T19:28:46.116Z,95085.67
2018-05-10T19:31:14.362Z,95082.58
2018-05-10T19:33:42.634Z,95087.28
2018-05-10T19:36:10.969Z,95098.00
2018-05-10T19:38:39.220Z,95110.02
2018-05-10T19:41:08.248Z,95114.59
2018-05-10T19:43:37.271Z,95117.47
2018-05-10T19:46:05.521Z,95118.91
2018-05-10T19:48:33.787Z,95131.47
2018-05-10T19:51:02.817Z,95127.59
2018-05-10T19:53:31.083Z,95138.72
2018-05-10T19:55:59.339Z,95145.02
2018-05-10T19:58:28.371Z,95151.03
2018-05-10T20:00:56.628Z,95153.08
2018-05-10T20:03:25.853Z,95158.10
2018-05-10T20:05:54.106Z,95165.31
2018-05-10T20:08:23.141Z,95174.07
2018-05-10T20:10:51.386Z,95179.05
2018-05-10T20:13:20.420Z,95179.97
2018-05-10T20:15:48.681Z,95181.01
2018-05-10T20:18:16.930Z,95190.48
2018-05-10T20:20:45.961Z,95200.78
2018-05-10T20:23:14.237Z,95208.70
2018-05-10T20:25:42.507Z,95208.39
2018-05-10T20:28:11.634Z,95219.13
2018-05-10T20:30:39.788Z,95229.31
2018-05-10T20:33:08.049Z,95237.36
2018-05-10T20:35:37.068Z,95244.94
2018-05-10T20:38:05.339Z,95250.09
2018-05-10T20:40:34.367Z,95253.55
2018-05-10T20:43:02.717Z,95251.05
2018-05-10T20:45:30.954Z,95257.58
2018-05-10T20:47:59.231Z,95261.19
2018-05-10T20:50:27.555Z,95266.97
2018-05-10T20:52:55.775Z,95266.78
2018-05-10T20:55:24.051Z,95277.48
2018-05-10T20:57:52.306Z,95278.23
2018-05-10T21:00:20.570Z,95278.04
2018-05-10T21:02:49.597Z,95282.91
2018-05-10T21:05:17.862Z,95296.21
2018-05-10T21:07:46.890Z,95291.84
2018-05-10T21:10:15.156Z,95301.34
2018-05-10T21:12:43.428Z,95309.03
2018-05-10T21:15:11.698Z,95307.70
2018-05-10T21:17:40.716Z,95314.05
2018-05-10T21:20:09.563Z,95316.48
2018-05-10T21:22:37.823Z,95319.69
2018-05-10T21:25:06.094Z,95321.09
2018-05-10T21:27:34.355Z,95331.22
2018-05-10T21:30:02.619Z,95328.63
2018-05-10T21:32:30.876Z,95329.31
2018-05-10T21:34:59.142Z,95328.01
2018-05-10T21:37:27.403Z,95338.78
2018-05-10T21:39:55.664Z,95335.75
2018-05-10T21:42:23.908Z,95345.98
2018-05-10T21:44:53.035Z,95337.80
2018-05-10T21:47:21.186Z,95350.09
2018-05-10T21:50:05.567Z,95341.14
2018-05-10T21:52:33.814Z,95341.30
2018-05-10T21:55:02.860Z,95341.28
2018-05-10T21:57:31.100Z,95338.27
2018-05-10T21:59:59.371Z,95341.14
2018-05-10T22:02:28.374Z,95349.19
2018-05-10T22:04:57.468Z,95353.70
2018-05-10T22:07:26.488Z,95351.41
2018-05-10T22:09:54.751Z,95349.85
2018-05-10T22:12:23.771Z,95358.05
2018-05-10T22:14:52.018Z,95360.68
2018-05-10T22:17:21.077Z,95364.84
2018-05-10T22:19:49.336Z,95362.55
2018-05-10T22:25:16.192Z,95364.73
2018-05-10T22:27:44.449Z,95364.70
2018-05-10T22:30:13.467Z,95361.58
2018-05-10T22:32:41.707Z,95366.02
2018-05-10T22:35:10.643Z,95365.27
2018-05-10T22:37:38.875Z,95364.70
2018-05-10T22:40:07.123Z,95368.18
2018-05-10T22:42:35.369Z,95365.25
2018-05-10T22:45:03.623Z,95370.95
2018-05-10T22:47:32.636Z,95368.25
2018-05-10T22:50:01.660Z,95371.01
2018-05-10T22:52:29.917Z,95366.45
2018-05-10T22:54:58.943Z,95362.16
2018-05-10T22:57:27.189Z,95366.09
2018-05-10T22:59:56.288Z,95364.83
2018-05-10T23:02:25.314Z,95363.50
2018-05-10T23:04:53.557Z,95366.08
2018-05-10T23:07:22.570Z,95372.59
2018-05-10T23:09:50.825Z,95365.55
2018-05-10T23:12:19.072Z,95374.61
2018-05-10T23:14:47.317Z,95369.69
2018-05-10T23:17:15.579Z,95367.69
2018-05-10T23:19:44.591Z,95368.20
2018-05-10T23:22:13.366Z,95366.77
2018-05-10T23:24:42.370Z,95369.05
2018-05-10T23:27:11.393Z,95360.61
2018-05-10T23:29:39.676Z,95363.09
2018-05-10T23:32:08.675Z,95353.33
2018-05-10T23:34:36.919Z,95353.84
2018-05-10T23:37:05.938Z,95357.30
2018-05-10T23:39:34.183Z,95352.70
2018-05-10T23:42:02.434Z,95359.47
2018-05-10T23:44:30.693Z,95354.17
2018-05-10T23:46:58.959Z,95358.16
2018-05-10T23:49:28.481Z,95354.17
2018-05-10T23:51:56.726Z,95358.98
2018-05-10T23:54:25.753Z,95360.38
2018-05-10T23:56:54.007Z,95356.84
2018-05-10T23:59:23.011Z,95359.89
